createdAt,value
2023-05-09T00:00:16.225Z,522.00
2023-05-09T00:01:16.797Z,525.00
2023-05-09T00:02:16.312Z,526.00
2023-05-09T00:03:16.295Z,527.00
2023-05-09T00:04:16.377Z,528.00
2023-05-09T00:05:16.643Z,528.00
2023-05-09T00:06:16.196Z,530.00
2023-05-09T00:07:16.167Z,531.00
2023-05-09T00:08:16.144Z,532.00
2023-05-09T00:09:16.119Z,530.00
2023-05-09T00:10:16.134Z,530.00
2023-05-09T00:11:16.096Z,530.00
2023-05-09T00:12:16.054Z,531.00
2023-05-09T00:13:16.107Z,533.00
2023-05-09T00:14:16.021Z,531.00
2023-05-09T00:15:16.215Z,531.00
2023-05-09T00:16:16.021Z,529.00
2023-05-09T00:17:16.053Z,529.00
2023-05-09T00:18:15.950Z,529.00
2023-05-09T00:19:15.933Z,531.00
2023-05-09T00:20:15.931Z,530.00
2023-05-09T00:21:15.923Z,528.00
2023-05-09T00:22:15.867Z,530.00
2023-05-09T00:23:15.848Z,529.00
2023-05-09T00:24:15.868Z,526.00
2023-05-09T00:25:16.012Z,530.00
2023-05-09T00:26:15.790Z,530.00
2023-05-09T00:27:15.769Z,527.00
2023-05-09T00:28:15.746Z,526.00
2023-05-09T00:29:15.734Z,525.00
2023-05-09T00:30:15.705Z,524.00
2023-05-09T00:31:15.682Z,522.00
2023-05-09T00:32:15.773Z,522.00
2023-05-09T00:33:15.742Z,522.00
2023-05-09T00:34:15.610Z,523.00
2023-05-09T00:35:15.794Z,522.00
2023-05-09T00:36:15.577Z,522.00
2023-05-09T00:37:15.539Z,524.00
2023-05-09T00:38:15.509Z,524.00
2023-05-09T00:39:15.488Z,523.00
2023-05-09T00:40:15.470Z,525.00
2023-05-09T00:41:15.470Z,522.00
2023-05-09T00:42:15.424Z,524.00
2023-05-09T00:43:15.413Z,523.00
2023-05-09T00:44:15.406Z,524.00
2023-05-09T00:45:15.591Z,524.00
2023-05-09T00:46:15.368Z,526.00
2023-05-09T00:47:15.330Z,527.00
2023-05-09T00:48:15.292Z,530.00
2023-05-09T00:49:15.368Z,530.00
2023-05-09T00:50:15.286Z,528.00
2023-05-09T00:51:15.248Z,528.00
2023-05-09T00:52:15.254Z,524.00
2023-05-09T00:53:15.206Z,522.00
2023-05-09T00:54:15.219Z,521.00
2023-05-09T00:55:15.332Z,520.00
2023-05-09T00:56:15.163Z,521.00
2023-05-09T00:57:15.141Z,521.00
2023-05-09T00:58:15.107Z,523.00
2023-05-09T00:59:17.492Z,525.00
2023-05-09T01:00:15.137Z,522.00
2023-05-09T01:01:15.215Z,522.00
2023-05-09T01:02:15.218Z,521.00
2023-05-09T01:03:15.251Z,519.00
2023-05-09T01:04:15.200Z,520.00
2023-05-09T01:05:15.679Z,519.00
2023-05-09T01:06:15.171Z,522.00
2023-05-09T01:07:15.197Z,523.00
2023-05-09T01:08:15.218Z,519.00
2023-05-09T01:09:15.193Z,521.00
2023-05-09T01:10:15.232Z,520.00
2023-05-09T01:11:15.197Z,520.00
2023-05-09T01:12:15.197Z,518.00
2023-05-09T01:13:15.275Z,522.00
2023-05-09T01:14:15.200Z,522.00
2023-05-09T01:15:15.485Z,522.00
2023-05-09T01:16:15.237Z,520.00
2023-05-09T01:17:15.203Z,518.00
2023-05-09T01:18:15.220Z,516.00
2023-05-09T01:19:15.212Z,515.00
2023-05-09T01:20:15.209Z,518.00
2023-05-09T01:21:15.377Z,520.00
2023-05-09T01:22:16.806Z,518.00
2023-05-09T01:23:15.235Z,517.00
2023-05-09T01:24:15.287Z,518.00
2023-05-09T01:25:15.689Z,518.00
2023-05-09T01:26:15.253Z,516.00
2023-05-09T01:27:15.226Z,517.00
2023-05-09T01:28:15.264Z,521.00
2023-05-09T01:29:15.283Z,521.00
2023-05-09T01:30:15.258Z,521.00
2023-05-09T01:31:15.305Z,522.00
2023-05-09T01:32:15.266Z,523.00
2023-05-09T01:33:15.299Z,525.00
2023-05-09T01:34:15.308Z,524.00
2023-05-09T01:35:15.560Z,521.00
2023-05-09T01:36:15.304Z,519.00
2023-05-09T01:37:15.412Z,518.00
2023-05-09T01:38:15.336Z,519.00
2023-05-09T01:39:15.346Z,520.00
2023-05-09T01:40:15.375Z,518.00
2023-05-09T01:41:15.375Z,519.00
2023-05-09T01:42:15.421Z,518.00
2023-05-09T01:43:15.385Z,518.00
2023-05-09T01:44:15.446Z,520.00
2023-05-09T01:45:15.943Z,519.00
2023-05-09T01:46:15.459Z,519.00
2023-05-09T01:47:15.460Z,518.00
2023-05-09T01:48:15.461Z,518.00
2023-05-09T01:49:15.482Z,519.00
2023-05-09T01:50:15.519Z,518.00
2023-05-09T01:51:15.542Z,518.00
2023-05-09T01:52:15.512Z,519.00
2023-05-09T01:53:15.591Z,518.00
2023-05-09T01:54:15.531Z,518.00
2023-05-09T01:55:15.714Z,519.00
2023-05-09T01:56:15.550Z,518.00
2023-05-09T01:57:15.582Z,518.00
2023-05-09T01:58:15.557Z,516.00
2023-05-09T01:59:15.601Z,516.00
2023-05-09T02:00:15.602Z,515.00
2023-05-09T02:01:15.772Z,516.00
2023-05-09T02:02:15.647Z,516.00
2023-05-09T02:03:15.644Z,518.00
2023-05-09T02:04:15.620Z,517.00
2023-05-09T02:05:15.897Z,517.00
2023-05-09T02:06:15.621Z,516.00
2023-05-09T02:07:15.659Z,516.00
2023-05-09T02:08:15.632Z,518.00
2023-05-09T02:09:15.752Z,515.00
2023-05-09T02:10:15.670Z,515.00
2023-05-09T02:11:15.699Z,515.00
2023-05-09T02:12:15.704Z,515.00
2023-05-09T02:13:15.758Z,514.00
2023-05-09T02:14:15.723Z,516.00
2023-05-09T02:15:15.987Z,519.00
2023-05-09T02:16:15.823Z,519.00
2023-05-09T02:17:15.754Z,518.00
2023-05-09T02:18:15.778Z,521.00
2023-05-09T02:19:15.812Z,522.00
2023-05-09T02:20:15.795Z,522.00
2023-05-09T02:21:15.881Z,521.00
2023-05-09T02:22:15.876Z,518.00
2023-05-09T02:23:15.827Z,517.00
2023-05-09T02:24:15.968Z,518.00
2023-05-09T02:25:16.281Z,520.00
2023-05-09T02:26:15.869Z,520.00
2023-05-09T02:27:15.895Z,520.00
2023-05-09T02:28:15.897Z,518.00
2023-05-09T02:29:15.898Z,518.00
2023-05-09T02:30:15.902Z,517.00
2023-05-09T02:31:15.908Z,517.00
2023-05-09T02:32:15.950Z,520.00
2023-05-09T02:33:15.946Z,519.00
2023-05-09T02:34:15.943Z,521.00
2023-05-09T02:35:16.156Z,519.00
2023-05-09T02:36:15.982Z,518.00
2023-05-09T02:37:15.998Z,515.00
2023-05-09T02:38:16.018Z,518.00
2023-05-09T02:39:16.016Z,519.00
2023-05-09T02:40:16.091Z,516.00
2023-05-09T02:41:16.154Z,516.00
2023-05-09T02:42:16.074Z,518.00
2023-05-09T02:43:16.078Z,519.00
2023-05-09T02:44:16.087Z,518.00
2023-05-09T02:45:16.276Z,520.00
2023-05-09T02:46:16.139Z,517.00
2023-05-09T02:47:16.132Z,516.00
2023-05-09T02:48:16.132Z,516.00
2023-05-09T02:49:30.875Z,516.00
2023-05-09T02:50:17.120Z,516.00
2023-05-09T02:51:16.105Z,515.00
2023-05-09T02:52:16.079Z,516.00
2023-05-09T02:53:16.052Z,516.00
2023-05-09T02:54:16.028Z,515.00
2023-05-09T02:55:16.391Z,515.00
2023-05-09T02:56:15.980Z,513.00
2023-05-09T02:57:16.042Z,513.00
2023-05-09T02:58:15.917Z,514.00
2023-05-09T02:59:15.903Z,514.00
2023-05-09T03:00:15.885Z,513.00
2023-05-09T03:01:15.885Z,512.00
2023-05-09T03:02:15.846Z,513.00
2023-05-09T03:03:15.909Z,513.00
2023-05-09T03:04:15.810Z,511.00
2023-05-09T03:05:15.970Z,510.00
2023-05-09T03:06:15.776Z,510.00
2023-05-09T03:07:15.770Z,511.00
2023-05-09T03:08:15.740Z,512.00
2023-05-09T03:09:15.744Z,513.00
2023-05-09T03:10:15.764Z,516.00
2023-05-09T03:11:15.759Z,516.00
2023-05-09T03:12:15.787Z,516.00
2023-05-09T03:13:15.891Z,516.00
2023-05-09T03:14:15.838Z,514.00
2023-05-09T03:15:15.925Z,511.00
2023-05-09T03:16:15.838Z,514.00
2023-05-09T03:17:15.855Z,515.00
2023-05-09T03:18:15.846Z,517.00
2023-05-09T03:19:15.870Z,518.00
2023-05-09T03:20:15.923Z,519.00
2023-05-09T03:21:15.903Z,520.00
2023-05-09T03:22:15.909Z,519.00
2023-05-09T03:23:15.910Z,518.00
2023-05-09T03:24:15.942Z,519.00
2023-05-09T03:25:16.201Z,522.00
2023-05-09T03:26:15.953Z,522.00
2023-05-09T03:27:15.982Z,522.00
2023-05-09T03:28:15.981Z,523.00
2023-05-09T03:29:16.112Z,524.00
2023-05-09T03:30:16.018Z,525.00
2023-05-09T03:31:16.074Z,522.00
2023-05-09T03:32:16.037Z,520.00
2023-05-09T03:33:16.050Z,519.00
2023-05-09T03:34:16.056Z,517.00
2023-05-09T03:35:16.282Z,517.00
2023-05-09T03:36:16.099Z,520.00
2023-05-09T03:37:16.097Z,522.00
2023-05-09T03:38:16.121Z,521.00
2023-05-09T03:39:16.126Z,519.00
2023-05-09T03:40:16.139Z,518.00
2023-05-09T03:41:16.215Z,517.00
2023-05-09T03:42:16.181Z,515.00
2023-05-09T03:43:16.205Z,514.00
2023-05-09T03:44:16.198Z,516.00
2023-05-09T03:45:16.448Z,518.00
2023-05-09T03:46:16.248Z,522.00
2023-05-09T03:47:16.211Z,521.00
2023-05-09T03:48:16.181Z,519.00
2023-05-09T03:49:16.162Z,520.00
2023-05-09T03:50:16.163Z,521.00
2023-05-09T03:51:16.133Z,521.00
2023-05-09T03:52:16.118Z,521.00
2023-05-09T03:53:16.103Z,521.00
2023-05-09T03:54:16.092Z,519.00
2023-05-09T03:55:16.338Z,520.00
2023-05-09T03:56:16.039Z,520.00
2023-05-09T03:57:16.024Z,522.00
2023-05-09T03:58:16.012Z,523.00
2023-05-09T03:59:15.994Z,524.00
2023-05-09T04:00:15.979Z,524.00
2023-05-09T04:01:16.070Z,522.00
2023-05-09T04:02:16.012Z,525.00
2023-05-09T04:03:16.165Z,525.00
2023-05-09T04:04:15.913Z,523.00
2023-05-09T04:05:16.171Z,521.00
2023-05-09T04:06:15.887Z,520.00
2023-05-09T04:07:15.878Z,518.00
2023-05-09T04:08:15.871Z,517.00
2023-05-09T04:09:15.840Z,516.00
2023-05-09T04:10:15.806Z,520.00
2023-05-09T04:11:15.787Z,522.00
2023-05-09T04:12:15.830Z,518.00
2023-05-09T04:13:15.864Z,518.00
2023-05-09T04:14:15.856Z,516.00
2023-05-09T04:15:16.129Z,518.00
2023-05-09T04:16:15.943Z,518.00
2023-05-09T04:17:15.964Z,519.00
2023-05-09T04:18:15.895Z,518.00
2023-05-09T04:19:16.229Z,519.00
2023-05-09T04:20:15.893Z,521.00
2023-05-09T04:21:15.917Z,523.00
2023-05-09T04:22:15.946Z,522.00
2023-05-09T04:23:15.928Z,525.00
2023-05-09T04:24:15.909Z,527.00
2023-05-09T04:25:16.245Z,526.00
2023-05-09T04:26:15.886Z,526.00
2023-05-09T04:27:15.868Z,528.00
2023-05-09T04:28:15.863Z,526.00
2023-05-09T04:29:15.840Z,525.00
2023-05-09T04:30:15.847Z,526.00
2023-05-09T04:31:15.951Z,525.00
2023-05-09T04:32:15.903Z,524.00
2023-05-09T04:33:15.888Z,521.00
2023-05-09T04:34:15.798Z,520.00
2023-05-09T04:35:18.005Z,522.00
2023-05-09T04:36:15.763Z,522.00
2023-05-09T04:37:15.762Z,521.00
2023-05-09T04:38:15.744Z,521.00
2023-05-09T04:39:15.728Z,520.00
2023-05-09T04:40:15.711Z,518.00
2023-05-09T04:41:15.695Z,520.00
2023-05-09T04:42:15.681Z,519.00
2023-05-09T04:43:15.687Z,520.00
2023-05-09T04:44:15.666Z,520.00
2023-05-09T04:45:15.899Z,520.00
2023-05-09T04:46:15.681Z,522.00
2023-05-09T04:47:15.655Z,524.00
2023-05-09T04:48:15.659Z,524.00
2023-05-09T04:49:15.720Z,526.00
2023-05-09T04:50:15.622Z,527.00
2023-05-09T04:51:15.600Z,526.00
2023-05-09T04:52:15.578Z,524.00
2023-05-09T04:53:15.592Z,526.00
2023-05-09T04:54:15.558Z,527.00
2023-05-09T04:55:15.809Z,526.00
2023-05-09T04:56:15.542Z,523.00
2023-05-09T04:57:18.576Z,524.00
2023-05-09T04:58:15.526Z,523.00
2023-05-09T04:59:15.584Z,523.00
2023-05-09T05:00:15.495Z,521.00
2023-05-09T05:01:15.494Z,521.00
2023-05-09T05:02:15.509Z,523.00
2023-05-09T05:03:15.462Z,521.00
2023-05-09T05:04:15.514Z,519.00
2023-05-09T05:05:15.553Z,519.00
2023-05-09T05:06:15.458Z,519.00
2023-05-09T05:07:15.428Z,515.00
2023-05-09T05:08:15.449Z,517.00
2023-05-09T05:09:15.406Z,514.00
2023-05-09T05:10:15.391Z,517.00
2023-05-09T05:11:15.427Z,517.00
2023-05-09T05:12:15.369Z,520.00
2023-05-09T05:13:15.387Z,521.00
2023-05-09T05:14:15.384Z,519.00
2023-05-09T05:15:15.583Z,520.00
2023-05-09T05:16:15.318Z,521.00
2023-05-09T05:17:15.357Z,522.00
2023-05-09T05:18:15.296Z,524.00
2023-05-09T05:19:15.270Z,524.00
2023-05-09T05:20:15.310Z,524.00
2023-05-09T05:21:15.338Z,522.00
2023-05-09T05:22:15.250Z,521.00
2023-05-09T05:23:15.238Z,521.00
2023-05-09T05:24:15.248Z,521.00
2023-05-09T05:25:15.618Z,522.00
2023-05-09T05:26:15.190Z,523.00
2023-05-09T05:27:15.186Z,524.00
2023-05-09T05:28:15.243Z,525.00
2023-05-09T05:29:15.184Z,528.00
2023-05-09T05:30:15.277Z,528.00
2023-05-09T05:31:15.155Z,528.00
2023-05-09T05:32:15.106Z,530.00
2023-05-09T05:33:15.104Z,527.00
2023-05-09T05:34:15.131Z,528.00
2023-05-09T05:35:15.339Z,649.00
2023-05-09T05:36:15.056Z,714.00
2023-05-09T05:37:15.127Z,743.00
2023-05-09T05:38:15.022Z,750.00
2023-05-09T05:39:14.986Z,753.00
2023-05-09T05:40:14.986Z,760.00
2023-05-09T05:41:14.981Z,754.00
2023-05-09T05:42:14.960Z,748.00
2023-05-09T05:43:14.945Z,741.00
2023-05-09T05:44:14.941Z,747.00
2023-05-09T05:45:15.170Z,744.00
2023-05-09T05:46:14.885Z,749.00
2023-05-09T05:47:14.880Z,758.00
2023-05-09T05:48:14.846Z,756.00
2023-05-09T05:49:15.159Z,758.00
2023-05-09T05:50:14.904Z,762.00
2023-05-09T05:51:14.848Z,723.00
2023-05-09T05:52:14.777Z,733.00
2023-05-09T05:53:14.869Z,765.00
2023-05-09T05:54:14.758Z,791.00
2023-05-09T05:55:14.965Z,807.00
2023-05-09T05:56:14.688Z,808.00
2023-05-09T05:57:14.720Z,809.00
2023-05-09T05:58:14.652Z,806.00
2023-05-09T05:59:14.623Z,811.00
2023-05-09T06:00:14.724Z,803.00
2023-05-09T06:01:14.593Z,796.00
2023-05-09T06:02:14.618Z,797.00
2023-05-09T06:03:14.776Z,822.00
2023-05-09T06:04:14.660Z,847.00
2023-05-09T06:05:14.775Z,879.00
2023-05-09T06:06:14.500Z,887.00
2023-05-09T06:07:14.446Z,893.00
2023-05-09T06:08:14.480Z,897.00
2023-05-09T06:09:14.487Z,901.00
2023-05-09T06:10:14.434Z,904.00
2023-05-09T06:11:14.442Z,909.00
2023-05-09T06:12:14.640Z,918.00
2023-05-09T06:13:14.381Z,931.00
2023-05-09T06:14:14.421Z,942.00
2023-05-09T06:15:15.045Z,953.00
2023-05-09T06:16:19.911Z,952.00
2023-05-09T06:17:15.272Z,960.00
2023-05-09T06:18:14.318Z,950.00
2023-05-09T06:19:14.190Z,952.00
2023-05-09T06:20:14.178Z,953.00
2023-05-09T06:21:14.893Z,956.00
2023-05-09T06:22:14.212Z,967.00
2023-05-09T06:23:14.119Z,978.00
2023-05-09T06:24:20.144Z,982.00
2023-05-09T06:25:14.354Z,978.00
2023-05-09T06:26:14.028Z,976.00
2023-05-09T06:27:13.994Z,977.00
2023-05-09T06:28:13.960Z,973.00
2023-05-09T06:29:13.933Z,977.00
2023-05-09T06:30:24.582Z,981.00
2023-05-09T06:31:14.917Z,990.00
2023-05-09T06:32:13.937Z,985.00
2023-05-09T06:33:13.929Z,988.00
2023-05-09T06:34:13.827Z,994.00
2023-05-09T06:35:13.851Z,995.00
2023-05-09T06:36:13.742Z,998.00
2023-05-09T06:37:13.795Z,993.00
2023-05-09T06:38:13.800Z,990.00
2023-05-09T06:39:13.712Z,997.00
2023-05-09T06:40:13.751Z,1000.00
2023-05-09T06:41:13.793Z,1002.00
2023-05-09T06:42:13.920Z,1000.00
2023-05-09T06:43:13.783Z,983.00
2023-05-09T06:44:13.769Z,983.00
2023-05-09T06:45:13.961Z,973.00
2023-05-09T06:46:13.747Z,937.00
2023-05-09T06:47:13.658Z,948.00
2023-05-09T06:48:13.734Z,950.00
2023-05-09T06:49:13.650Z,958.00
2023-05-09T06:50:13.701Z,962.00
2023-05-09T06:51:13.716Z,958.00
2023-05-09T06:52:13.788Z,966.00
2023-05-09T06:53:13.774Z,972.00
2023-05-09T06:54:13.852Z,986.00
2023-05-09T06:55:14.126Z,995.00
2023-05-09T06:56:13.918Z,1001.00
2023-05-09T06:57:14.004Z,1008.00
2023-05-09T06:58:14.423Z,1011.00
2023-05-09T06:59:14.015Z,1011.00
2023-05-09T07:00:14.069Z,1008.00
2023-05-09T07:01:14.170Z,1007.00
2023-05-09T07:02:14.158Z,1011.00
2023-05-09T07:03:14.193Z,1006.00
2023-05-09T07:04:14.237Z,1006.00
2023-05-09T07:05:15.204Z,1008.00
2023-05-09T07:06:14.269Z,1010.00
2023-05-09T07:07:14.319Z,1004.00
2023-05-09T07:08:14.408Z,996.00
2023-05-09T07:09:14.381Z,1013.00
2023-05-09T07:10:14.404Z,1012.00
2023-05-09T07:11:14.456Z,989.00
2023-05-09T07:12:14.595Z,984.00
2023-05-09T07:13:14.742Z,987.00
2023-05-09T07:14:14.545Z,1005.00
2023-05-09T07:15:18.520Z,1092.00
2023-05-09T07:16:15.586Z,1093.00
2023-05-09T07:17:22.867Z,1087.00
2023-05-09T07:18:15.555Z,1093.00
2023-05-09T07:19:14.425Z,1093.00
2023-05-09T07:20:14.430Z,1097.00
2023-05-09T07:21:14.368Z,1098.00
2023-05-09T07:22:14.456Z,1094.00
2023-05-09T07:23:14.298Z,1091.00
2023-05-09T07:24:14.329Z,1085.00
2023-05-09T07:25:14.422Z,1087.00
2023-05-09T07:26:14.188Z,1090.00
2023-05-09T07:27:14.166Z,1094.00
2023-05-09T07:28:14.166Z,1099.00
2023-05-09T07:29:14.280Z,1099.00
2023-05-09T07:30:14.408Z,1105.00
2023-05-09T07:31:14.257Z,1147.00
2023-05-09T07:32:14.656Z,1144.00
2023-05-09T07:33:14.316Z,1141.00
2023-05-09T07:34:14.245Z,1137.00
2023-05-09T07:35:15.063Z,1131.00
2023-05-09T07:36:14.313Z,1125.00
2023-05-09T07:37:15.432Z,1112.00
2023-05-09T07:38:14.471Z,1113.00
2023-05-09T07:39:14.180Z,1133.00
2023-05-09T07:40:14.538Z,1127.00
2023-05-09T07:41:14.114Z,1129.00
2023-05-09T07:42:14.264Z,1121.00
2023-05-09T07:43:14.037Z,1126.00
2023-05-09T07:44:14.116Z,1130.00
2023-05-09T07:45:14.557Z,1128.00
2023-05-09T07:46:14.207Z,1132.00
2023-05-09T07:47:14.069Z,1135.00
2023-05-09T07:48:14.284Z,1134.00
2023-05-09T07:49:14.058Z,1130.00
2023-05-09T07:50:14.218Z,1127.00
2023-05-09T07:51:14.306Z,1132.00
2023-05-09T07:52:14.119Z,1134.00
2023-05-09T07:53:14.094Z,1136.00
2023-05-09T07:54:14.165Z,1138.00
2023-05-09T07:55:14.366Z,1147.00
2023-05-09T07:56:14.091Z,1159.00
2023-05-09T07:57:14.057Z,1181.00
2023-05-09T07:58:13.977Z,1235.00
2023-05-09T07:59:13.989Z,1233.00
2023-05-09T08:00:13.929Z,1200.00
2023-05-09T08:01:14.060Z,1187.00
2023-05-09T08:02:13.855Z,1173.00
2023-05-09T08:03:13.936Z,1157.00
2023-05-09T08:04:14.111Z,1151.00
2023-05-09T08:05:13.982Z,1145.00
2023-05-09T08:06:13.696Z,1143.00
2023-05-09T08:07:13.616Z,1145.00
2023-05-09T08:08:13.551Z,1142.00
2023-05-09T08:09:13.560Z,1133.00
2023-05-09T08:10:13.551Z,1127.00
2023-05-09T08:11:13.537Z,1122.00
2023-05-09T08:12:13.518Z,1120.00
2023-05-09T08:13:14.992Z,1120.00
2023-05-09T08:14:15.638Z,1119.00
2023-05-09T08:15:13.955Z,1115.00
2023-05-09T08:16:13.534Z,1110.00
2023-05-09T08:17:13.585Z,1102.00
2023-05-09T08:18:13.483Z,1100.00
2023-05-09T08:19:13.487Z,1096.00
2023-05-09T08:20:13.492Z,1097.00
2023-05-09T08:21:13.478Z,1100.00
2023-05-09T08:22:13.544Z,1101.00
2023-05-09T08:23:13.469Z,1102.00
2023-05-09T08:24:13.464Z,1102.00
2023-05-09T08:25:13.684Z,1103.00
2023-05-09T08:26:13.459Z,1105.00
2023-05-09T08:27:13.446Z,1102.00
2023-05-09T08:28:13.444Z,1100.00
2023-05-09T08:29:13.426Z,1097.00
2023-05-09T08:30:13.463Z,1094.00
2023-05-09T08:31:13.423Z,1089.00
2023-05-09T08:32:13.422Z,1084.00
2023-05-09T08:33:13.567Z,863.00
2023-05-09T08:34:13.467Z,778.00
2023-05-09T08:35:13.627Z,774.00
2023-05-09T08:36:13.518Z,690.00
2023-05-09T08:37:15.205Z,765.00
2023-05-09T08:38:14.521Z,647.00
2023-05-09T08:39:13.825Z,593.00
2023-05-09T08:40:13.863Z,641.00
2023-05-09T08:41:13.646Z,572.00
2023-05-09T08:42:13.693Z,615.00
2023-05-09T08:43:13.742Z,718.00
2023-05-09T08:44:13.978Z,736.00
2023-05-09T08:45:13.944Z,757.00
2023-05-09T08:46:13.995Z,882.00
2023-05-09T08:47:13.960Z,847.00
2023-05-09T08:48:14.061Z,896.00
2023-05-09T08:49:14.253Z,977.00
2023-05-09T08:50:14.100Z,1090.00
2023-05-09T08:51:13.821Z,1055.00
2023-05-09T08:52:13.772Z,969.00
2023-05-09T08:53:13.774Z,967.00
2023-05-09T08:54:13.734Z,925.00
2023-05-09T08:55:13.770Z,1011.00
2023-05-09T08:56:13.775Z,942.00
2023-05-09T08:57:13.818Z,834.00
2023-05-09T08:58:13.927Z,913.00
2023-05-09T08:59:13.882Z,778.00
2023-05-09T09:00:14.177Z,791.00
2023-05-09T09:01:14.085Z,816.00
2023-05-09T09:02:13.999Z,905.00
2023-05-09T09:03:14.066Z,894.00
2023-05-09T09:04:14.034Z,901.00
2023-05-09T09:05:33.992Z,909.00
2023-05-09T09:06:15.038Z,931.00
2023-05-09T09:07:14.041Z,989.00
2023-05-09T09:08:13.945Z,1024.00
2023-05-09T09:09:13.998Z,1019.00
2023-05-09T09:10:14.322Z,1028.00
2023-05-09T09:11:13.900Z,1040.00
2023-05-09T09:12:13.901Z,1056.00
2023-05-09T09:13:13.878Z,1074.00
2023-05-09T09:14:13.764Z,1093.00
2023-05-09T09:15:13.717Z,1115.00
2023-05-09T09:16:13.893Z,1141.00
2023-05-09T09:17:14.480Z,1157.00
2023-05-09T09:18:14.677Z,1177.00
2023-05-09T09:19:13.583Z,1185.00
2023-05-09T09:20:13.864Z,1195.00
2023-05-09T09:21:13.701Z,1200.00
2023-05-09T09:22:13.530Z,1209.00
2023-05-09T09:23:13.455Z,1215.00
2023-05-09T09:24:13.472Z,1228.00
2023-05-09T09:25:13.355Z,1233.00
2023-05-09T09:26:13.321Z,1234.00
2023-05-09T09:27:13.233Z,1243.00
2023-05-09T09:28:13.194Z,1257.00
2023-05-09T09:29:13.171Z,1267.00
2023-05-09T09:30:13.367Z,1276.00
2023-05-09T09:31:13.456Z,1284.00
2023-05-09T09:32:13.161Z,1295.00
2023-05-09T09:33:13.203Z,1300.00
2023-05-09T09:34:13.129Z,1180.00
2023-05-09T09:35:13.075Z,867.00
2023-05-09T09:36:13.072Z,785.00
2023-05-09T09:37:13.167Z,796.00
2023-05-09T09:38:13.085Z,862.00
2023-05-09T09:39:13.180Z,743.00
2023-05-09T09:40:13.357Z,818.00
2023-05-09T09:41:13.133Z,1038.00
2023-05-09T09:42:13.152Z,918.00
2023-05-09T09:43:13.118Z,1060.00
2023-05-09T09:44:13.147Z,1081.00
2023-05-09T09:45:13.158Z,1000.00
2023-05-09T09:46:13.025Z,927.00
2023-05-09T09:47:13.218Z,890.00
2023-05-09T09:48:12.890Z,962.00
2023-05-09T09:49:12.833Z,990.00
2023-05-09T09:50:12.976Z,1009.00
2023-05-09T09:51:12.771Z,1033.00
2023-05-09T09:52:12.722Z,1042.00
2023-05-09T09:53:12.809Z,1055.00
2023-05-09T09:54:12.743Z,1071.00
2023-05-09T09:55:12.735Z,1085.00
2023-05-09T09:56:12.768Z,1093.00
2023-05-09T09:57:12.765Z,1105.00
2023-05-09T09:58:12.734Z,1112.00
2023-05-09T09:59:12.702Z,1124.00
2023-05-09T10:00:12.849Z,1148.00
2023-05-09T10:01:12.674Z,1158.00
2023-05-09T10:02:12.586Z,1167.00
2023-05-09T10:03:12.668Z,1179.00
2023-05-09T10:04:12.543Z,1201.00
2023-05-09T10:05:12.455Z,1213.00
2023-05-09T10:06:12.375Z,1225.00
2023-05-09T10:07:14.903Z,1243.00
2023-05-09T10:08:12.290Z,1263.00
2023-05-09T10:09:12.330Z,1276.00
2023-05-09T10:10:12.312Z,1285.00
2023-05-09T10:11:12.161Z,1296.00
2023-05-09T10:12:12.184Z,1306.00
2023-05-09T10:13:12.180Z,1316.00
2023-05-09T10:14:12.015Z,1322.00
2023-05-09T10:15:11.984Z,1329.00
2023-05-09T10:16:12.048Z,1332.00
2023-05-09T10:17:11.929Z,1336.00
2023-05-09T10:18:12.007Z,1340.00
2023-05-09T10:19:11.866Z,1342.00
2023-05-09T10:20:11.890Z,1349.00
2023-05-09T10:21:11.712Z,1358.00
2023-05-09T10:22:11.651Z,1356.00
2023-05-09T10:23:11.592Z,1363.00
2023-05-09T10:24:11.587Z,1206.00
2023-05-09T10:25:11.598Z,1203.00
2023-05-09T10:26:11.475Z,1152.00
2023-05-09T10:27:11.446Z,1089.00
2023-05-09T10:28:11.414Z,1123.00
2023-05-09T10:29:11.395Z,1079.00
2023-05-09T10:30:11.373Z,1189.00
2023-05-09T10:31:11.380Z,1175.00
2023-05-09T10:32:11.249Z,1161.00
2023-05-09T10:33:11.240Z,1150.00
2023-05-09T10:34:11.194Z,1149.00
2023-05-09T10:35:12.011Z,1155.00
2023-05-09T10:36:11.089Z,1170.00
2023-05-09T10:37:11.032Z,1173.00
2023-05-09T10:38:11.000Z,1175.00
2023-05-09T10:39:10.962Z,1184.00
2023-05-09T10:40:10.956Z,1187.00
2023-05-09T10:41:10.954Z,1172.00
2023-05-09T10:42:10.827Z,1160.00
2023-05-09T10:43:10.786Z,1130.00
2023-05-09T10:44:10.753Z,1094.00
2023-05-09T10:45:10.761Z,1092.00
2023-05-09T10:46:10.701Z,1073.00
2023-05-09T10:47:10.611Z,1066.00
2023-05-09T10:48:10.564Z,1074.00
2023-05-09T10:49:10.524Z,1065.00
2023-05-09T10:50:10.491Z,1044.00
2023-05-09T10:51:10.451Z,1033.00
2023-05-09T10:52:10.445Z,1024.00
2023-05-09T10:53:10.393Z,1015.00
2023-05-09T10:54:10.360Z,1008.00
2023-05-09T10:55:10.327Z,994.00
2023-05-09T10:56:10.315Z,981.00
2023-05-09T10:57:10.406Z,976.00
2023-05-09T10:58:10.242Z,968.00
2023-05-09T10:59:10.263Z,959.00
2023-05-09T11:00:10.209Z,950.00
2023-05-09T11:01:10.219Z,946.00
2023-05-09T11:02:10.184Z,942.00
2023-05-09T11:03:10.243Z,935.00
2023-05-09T11:04:10.157Z,931.00
2023-05-09T11:05:10.117Z,921.00
2023-05-09T11:06:10.077Z,916.00
2023-05-09T11:07:10.092Z,911.00
2023-05-09T11:08:10.046Z,905.00
2023-05-09T11:09:10.042Z,902.00
2023-05-09T11:10:10.066Z,897.00
2023-05-09T11:11:09.974Z,892.00
2023-05-09T11:12:10.107Z,885.00
2023-05-09T11:13:10.081Z,883.00
2023-05-09T11:14:09.919Z,879.00
2023-05-09T11:15:09.929Z,874.00
2023-05-09T11:16:09.996Z,871.00
2023-05-09T11:17:09.830Z,868.00
2023-05-09T11:18:09.915Z,866.00
2023-05-09T11:19:09.755Z,862.00
2023-05-09T11:20:09.824Z,859.00
2023-05-09T11:21:09.823Z,857.00
2023-05-09T11:22:09.676Z,858.00
2023-05-09T11:23:09.695Z,854.00
2023-05-09T11:24:09.635Z,850.00
2023-05-09T11:25:09.620Z,847.00
2023-05-09T11:26:09.649Z,847.00
2023-05-09T11:27:09.522Z,842.00
2023-05-09T11:28:09.530Z,840.00
2023-05-09T11:29:09.642Z,840.00
2023-05-09T11:30:09.696Z,837.00
2023-05-09T11:31:09.434Z,836.00
2023-05-09T11:32:09.437Z,836.00
2023-05-09T11:33:09.633Z,833.00
2023-05-09T11:34:09.365Z,834.00
2023-05-09T11:35:09.422Z,834.00
2023-05-09T11:36:09.310Z,832.00
2023-05-09T11:37:09.316Z,829.00
2023-05-09T11:38:09.303Z,827.00
2023-05-09T11:39:09.271Z,824.00
2023-05-09T11:40:09.257Z,821.00
2023-05-09T11:41:09.216Z,818.00
2023-05-09T11:42:09.209Z,815.00
2023-05-09T11:43:09.187Z,813.00
2023-05-09T11:44:09.147Z,813.00
2023-05-09T11:45:09.604Z,813.00
2023-05-09T11:46:09.140Z,809.00
2023-05-09T11:47:09.115Z,807.00
2023-05-09T11:48:09.147Z,803.00
2023-05-09T11:49:11.345Z,800.00
2023-05-09T11:50:09.014Z,797.00
2023-05-09T11:51:08.988Z,794.00
2023-05-09T11:52:08.950Z,792.00
2023-05-09T11:53:08.929Z,789.00
2023-05-09T11:54:08.908Z,788.00
2023-05-09T11:55:10.238Z,783.00
2023-05-09T11:56:08.823Z,782.00
2023-05-09T11:57:08.789Z,781.00
2023-05-09T11:58:08.714Z,782.00
2023-05-09T11:59:08.697Z,784.00
2023-05-09T12:00:08.665Z,783.00
2023-05-09T12:01:11.183Z,781.00
2023-05-09T12:02:08.636Z,778.00
2023-05-09T12:03:08.617Z,775.00
2023-05-09T12:04:08.565Z,774.00
2023-05-09T12:05:08.536Z,772.00
2023-05-09T12:06:08.457Z,771.00
2023-05-09T12:07:08.430Z,769.00
2023-05-09T12:08:08.399Z,769.00
2023-05-09T12:09:08.371Z,770.00
2023-05-09T12:10:08.332Z,768.00
2023-05-09T12:11:08.295Z,767.00
2023-05-09T12:12:08.281Z,764.00
2023-05-09T12:13:08.257Z,760.00
2023-05-09T12:14:08.240Z,757.00
2023-05-09T12:15:08.219Z,755.00
2023-05-09T12:16:08.227Z,753.00
2023-05-09T12:17:08.208Z,750.00
2023-05-09T12:18:08.239Z,751.00
2023-05-09T12:19:08.077Z,748.00
2023-05-09T12:20:08.145Z,745.00
2023-05-09T12:21:08.010Z,744.00
2023-05-09T12:22:07.977Z,744.00